GMAD/AGA METAR and TAF weather

Enter ICAO airport designator
Station Type Date Time Source
GMAD METAR 2021/10/20 06:30 UTC NOAA

GMAD 200630Z 17003KT 0900 FG BKN003 12/12 Q1018 NOSIG


Station Type Date Time Source
GMAD Decoded METAR 2021/10/20 06:30 UTC NOAA

Agadir Al Massira, Morocco (GMAD) 30-20N 009-24W 74M
Oct 20, 2021 - 02:30 AM EDT / 2021.10.20 0630 UTC
Wind: from the S (170 degrees) at 3 MPH (3 KT):0
Visibility: less than 1 mile:0
Sky conditions: mostly cloudy
Weather: fog
Temperature: 53 F (12 C)
Dew Point: 53 F (12 C)
Relative Humidity: 100%
Pressure (altimeter): 30.06 in. Hg (1018 hPa)
ob: GMAD 200630Z 17003KT 0900 FG BKN003 12/12 Q1018 NOSIG
cycle: 6

Station Type Date Time Source
GMAD TAF 2021/10/20 06:18 UTC NOAA

TAF TAF GMAD 200500Z 2006/2112 09005KT 8000 BKN013
BECMG 2008/2011 NSC
BECMG 2012/2014 28012KT
BECMG 2019/2022 08005KT

Example: see airport list